This is the latest recevied weather packets stored in our database for station/object KF7SOJ. If no packets are shown the sender has not sent any weather packets the latest 10 day(s).
| Time | Temp. | Humidity | Pressure | Rain* | Wind** | Luminosity | Snow |
|---|---|---|---|---|---|---|---|
| 1777887979 | 7.78° C | 55% | 928 hPa | 0 mm | - | 0 W/m² | - |
| 1777887677 | 8.33° C | 53% | 928 hPa | 0 mm | - | 0 W/m² | - |
| 1777887373 | 8.89° C | 51% | 927.7 hPa | 0 mm | - | 0 W/m² | - |
| 1777887069 | 9.44° C | 49% | 927.6 hPa | 0 mm | - | 0 W/m² | - |
| 1777886765 | 9.44° C | 48% | 927.7 hPa | 0 mm | - | 0 W/m² | - |
| 1777886461 | 10° C | 47% | 927.6 hPa | 0 mm | - | 0 W/m² | - |
| 1777886159 | 10.56° C | 46% | 927.4 hPa | 0 mm | - | 0 W/m² | - |
| 1777885857 | 10.56° C | 44% | 927.2 hPa | 0 mm | - | 0 W/m² | - |
| 1777885555 | 10.56° C | 46% | 927.3 hPa | 0 mm | - | 0 W/m² | - |
| 1777885253 | 10.56° C | 46% | 927 hPa | 0 mm | - | 0 W/m² | - |
| 1777884951 | 10.56° C | 46% | 927.1 hPa | 0 mm | - | 0 W/m² | - |
| 1777884646 | 10.56° C | 46% | 926.9 hPa | 0 mm | - | 0 W/m² | - |
| 1777884343 | 10.56° C | 46% | 926.9 hPa | 0 mm | - | 0 W/m² | - |
| 1777884039 | 11.11° C | 44% | 926.8 hPa | 0 mm | - | 0 W/m² | - |
| 1777883737 | 11.67° C | 43% | 926.7 hPa | 0 mm | - | 0 W/m² | - |
| 1777883433 | 11.67° C | 42% | 926.4 hPa | 0 mm | - | 0 W/m² | - |
| 1777883130 | 11.67° C | 42% | 926.3 hPa | 0 mm | - | 0 W/m² | - |
| 1777882827 | 11.67° C | 41% | 926.3 hPa | 0 mm | - | 0 W/m² | - |
| 1777882524 | 11.67° C | 41% | 926.2 hPa | 0 mm | - | 0 W/m² | - |
| 1777882219 | 12.22° C | 40% | 926 hPa | 0 mm | - | 0 W/m² | - |
| 1777881916 | 11.67° C | 40% | 925.9 hPa | 0 mm | - | 0 W/m² | - |
| 1777881613 | 12.22° C | 39% | 925.9 hPa | 0 mm | - | 0 W/m² | - |
| 1777881309 | 12.78° C | 36% | 925.9 hPa | 0 mm | - | 0 W/m² | - |
| 1777881006 | 13.33° C | 36% | 925.6 hPa | 0 mm | - | 0 W/m² | - |
| 1777880704 | 12.78° C | 37% | 925.7 hPa | 0 mm | - | 0 W/m² | - |
* Rain latest hour (hover to see other rain measurements)
** Current wind speed in m/s (hover to see current wind gust speed)